sensor_id;sensor_type;location;lat;lon;timestamp;pressure;altitude;pressure_sealevel;temperature
72236;BMP280;60146;52.498;13.462;2023-11-22T00:00:16;100288.09;;;2.93
72236;BMP280;60146;52.498;13.462;2023-11-22T00:02:41;100283.00;;;2.82
72236;BMP280;60146;52.498;13.462;2023-11-22T00:05:07;100277.03;;;2.82
72236;BMP280;60146;52.498;13.462;2023-11-22T00:07:33;100275.25;;;2.98
72236;BMP280;60146;52.498;13.462;2023-11-22T00:09:58;100305.75;;;2.96
72236;BMP280;60146;52.498;13.462;2023-11-22T00:12:23;100333.38;;;3.23
72236;BMP280;60146;52.498;13.462;2023-11-22T00:14:50;100396.72;;;3.21
72236;BMP280;60146;52.498;13.462;2023-11-22T00:17:15;100395.31;;;3.13
72236;BMP280;60146;52.498;13.462;2023-11-22T00:19:44;100418.91;;;3.17
72236;BMP280;60146;52.498;13.462;2023-11-22T00:22:10;100456.94;;;3.16
72236;BMP280;60146;52.498;13.462;2023-11-22T00:24:41;100437.03;;;3.17
72236;BMP280;60146;52.498;13.462;2023-11-22T00:27:07;100477.53;;;3.12
72236;BMP280;60146;52.498;13.462;2023-11-22T00:29:33;100473.16;;;3.12
72236;BMP280;60146;52.498;13.462;2023-11-22T00:31:58;100469.56;;;3.13
72236;BMP280;60146;52.498;13.462;2023-11-22T00:34:24;100509.47;;;3.17
72236;BMP280;60146;52.498;13.462;2023-11-22T00:36:50;100526.81;;;3.16
72236;BMP280;60146;52.498;13.462;2023-11-22T00:39:16;100514.53;;;3.23
72236;BMP280;60146;52.498;13.462;2023-11-22T00:41:42;100512.00;;;3.12
72236;BMP280;60146;52.498;13.462;2023-11-22T00:44:07;100501.16;;;3.15
72236;BMP280;60146;52.498;13.462;2023-11-22T00:46:33;100521.88;;;3.15
72236;BMP280;60146;52.498;13.462;2023-11-22T00:48:58;100496.94;;;3.09
72236;BMP280;60146;52.498;13.462;2023-11-22T00:51:24;100493.34;;;2.99
72236;BMP280;60146;52.498;13.462;2023-11-22T00:53:49;100488.72;;;3.01
72236;BMP280;60146;52.498;13.462;2023-11-22T00:56:15;100477.16;;;3.03
72236;BMP280;60146;52.498;13.462;2023-11-22T00:58:40;100508.22;;;3.03
72236;BMP280;60146;52.498;13.462;2023-11-22T01:01:06;100496.03;;;2.92
72236;BMP280;60146;52.498;13.462;2023-11-22T01:03:31;100487.09;;;2.84
72236;BMP280;60146;52.498;13.462;2023-11-22T01:05:57;100483.50;;;2.85
72236;BMP280;60146;52.498;13.462;2023-11-22T01:08:23;100530.13;;;2.90
72236;BMP280;60146;52.498;13.462;2023-11-22T01:10:48;100520.16;;;2.82
72236;BMP280;60146;52.498;13.462;2023-11-22T01:13:13;100501.19;;;2.65
72236;BMP280;60146;52.498;13.462;2023-11-22T01:15:40;100456.31;;;2.60
72236;BMP280;60146;52.498;13.462;2023-11-22T01:18:06;100438.81;;;2.50
72236;BMP280;60146;52.498;13.462;2023-11-22T01:20:31;100418.25;;;2.44
72236;BMP280;60146;52.498;13.462;2023-11-22T01:22:56;100398.59;;;2.32
72236;BMP280;60146;52.498;13.462;2023-11-22T01:25:22;100365.28;;;2.19
72236;BMP280;60146;52.498;13.462;2023-11-22T01:27:47;100360.00;;;2.14
72236;BMP280;60146;52.498;13.462;2023-11-22T01:30:13;100345.41;;;2.08
72236;BMP280;60146;52.498;13.462;2023-11-22T01:32:38;100333.94;;;2.04
72236;BMP280;60146;52.498;13.462;2023-11-22T01:35:04;100332.69;;;2.07
72236;BMP280;60146;52.498;13.462;2023-11-22T01:37:31;100375.25;;;2.16
72236;BMP280;60146;52.498;13.462;2023-11-22T01:39:57;100349.44;;;2.04
72236;BMP280;60146;52.498;13.462;2023-11-22T01:42:23;100375.72;;;2.02
72236;BMP280;60146;52.498;13.462;2023-11-22T01:44:49;100355.28;;;2.00
72236;BMP280;60146;52.498;13.462;2023-11-22T01:47:14;100373.16;;;1.90
72236;BMP280;60146;52.498;13.462;2023-11-22T01:49:40;100369.88;;;1.95
72236;BMP280;60146;52.498;13.462;2023-11-22T01:52:06;100373.94;;;1.91
72236;BMP280;60146;52.498;13.462;2023-11-22T01:54:32;100362.91;;;1.84
72236;BMP280;60146;52.498;13.462;2023-11-22T01:56:58;100437.25;;;1.82
72236;BMP280;60146;52.498;13.462;2023-11-22T01:59:25;100571.50;;;1.82
72236;BMP280;60146;52.498;13.462;2023-11-22T02:01:51;100661.78;;;1.77
72236;BMP280;60146;52.498;13.462;2023-11-22T02:04:17;100804.78;;;1.76
72236;BMP280;60146;52.498;13.462;2023-11-22T02:06:43;100924.44;;;1.70
72236;BMP280;60146;52.498;13.462;2023-11-22T02:09:08;101049.56;;;1.68
72236;BMP280;60146;52.498;13.462;2023-11-22T02:11:38;101134.13;;;1.79
72236;BMP280;60146;52.498;13.462;2023-11-22T02:14:04;101172.75;;;1.61
72236;BMP280;60146;52.498;13.462;2023-11-22T02:16:32;101173.31;;;1.63
72236;BMP280;60146;52.498;13.462;2023-11-22T02:18:57;101142.94;;;1.58
72236;BMP280;60146;52.498;13.462;2023-11-22T02:21:23;101220.41;;;1.58
72236;BMP280;60146;52.498;13.462;2023-11-22T02:23:48;101191.41;;;1.50
72236;BMP280;60146;52.498;13.462;2023-11-22T02:26:14;101198.34;;;1.50
72236;BMP280;60146;52.498;13.462;2023-11-22T02:28:43;101210.47;;;1.49
72236;BMP280;60146;52.498;13.462;2023-11-22T02:31:08;101188.84;;;1.37
72236;BMP280;60146;52.498;13.462;2023-11-22T02:33:34;101164.44;;;1.40
72236;BMP280;60146;52.498;13.462;2023-11-22T02:36:01;101166.25;;;1.33
72236;BMP280;60146;52.498;13.462;2023-11-22T02:38:27;101186.47;;;1.36
72236;BMP280;60146;52.498;13.462;2023-11-22T02:40:53;101175.56;;;1.34
72236;BMP280;60146;52.498;13.462;2023-11-22T02:43:19;101169.22;;;1.30
72236;BMP280;60146;52.498;13.462;2023-11-22T02:45:44;101178.78;;;1.23
72236;BMP280;60146;52.498;13.462;2023-11-22T02:48:10;101191.63;;;1.30
72236;BMP280;60146;52.498;13.462;2023-11-22T02:50:36;101173.78;;;1.35
72236;BMP280;60146;52.498;13.462;2023-11-22T02:53:02;101245.84;;;1.30
72236;BMP280;60146;52.498;13.462;2023-11-22T02:55:29;101244.28;;;1.29
72236;BMP280;60146;52.498;13.462;2023-11-22T02:57:54;101242.28;;;1.18
72236;BMP280;60146;52.498;13.462;2023-11-22T03:00:19;101233.56;;;1.25
72236;BMP280;60146;52.498;13.462;2023-11-22T03:02:45;101256.19;;;1.23
72236;BMP280;60146;52.498;13.462;2023-11-22T03:05:12;101256.38;;;1.22
72236;BMP280;60146;52.498;13.462;2023-11-22T03:07:42;101237.75;;;1.13
72236;BMP280;60146;52.498;13.462;2023-11-22T03:10:07;101218.47;;;1.10
72236;BMP280;60146;52.498;13.462;2023-11-22T03:12:34;101225.63;;;1.08
72236;BMP280;60146;52.498;13.462;2023-11-22T03:14:59;101233.56;;;1.06
72236;BMP280;60146;52.498;13.462;2023-11-22T03:17:28;101188.31;;;0.91
72236;BMP280;60146;52.498;13.462;2023-11-22T03:19:54;101198.25;;;1.07
72236;BMP280;60146;52.498;13.462;2023-11-22T03:22:22;101166.09;;;1.09
72236;BMP280;60146;52.498;13.462;2023-11-22T03:24:48;101149.44;;;0.86
72236;BMP280;60146;52.498;13.462;2023-11-22T03:27:14;101125.59;;;0.84
72236;BMP280;60146;52.498;13.462;2023-11-22T03:29:39;101085.16;;;0.78
72236;BMP280;60146;52.498;13.462;2023-11-22T03:32:05;101086.75;;;0.73
72236;BMP280;60146;52.498;13.462;2023-11-22T03:34:30;101042.72;;;0.81
72236;BMP280;60146;52.498;13.462;2023-11-22T03:36:56;101043.91;;;0.78
72236;BMP280;60146;52.498;13.462;2023-11-22T03:39:22;101022.28;;;0.79
72236;BMP280;60146;52.498;13.462;2023-11-22T03:41:47;100988.41;;;0.69
72236;BMP280;60146;52.498;13.462;2023-11-22T03:44:13;100942.78;;;0.76
72236;BMP280;60146;52.498;13.462;2023-11-22T03:46:38;100861.09;;;0.77
72236;BMP280;60146;52.498;13.462;2023-11-22T03:49:04;100785.25;;;0.84
72236;BMP280;60146;52.498;13.462;2023-11-22T03:51:31;100718.22;;;0.84
72236;BMP280;60146;52.498;13.462;2023-11-22T03:53:57;100661.31;;;0.86
72236;BMP280;60146;52.498;13.462;2023-11-22T03:56:22;100657.09;;;0.91
72236;BMP280;60146;52.498;13.462;2023-11-22T03:58:47;100647.44;;;0.87
72236;BMP280;60146;52.498;13.462;2023-11-22T04:01:14;100623.28;;;0.81
72236;BMP280;60146;52.498;13.462;2023-11-22T04:03:40;100612.97;;;0.81
72236;BMP280;60146;52.498;13.462;2023-11-22T04:06:06;100620.88;;;0.86
72236;BMP280;60146;52.498;13.462;2023-11-22T04:08:31;100620.13;;;0.79
72236;BMP280;60146;52.498;13.462;2023-11-22T04:10:56;100617.38;;;0.74
72236;BMP280;60146;52.498;13.462;2023-11-22T04:13:22;100622.81;;;0.67
72236;BMP280;60146;52.498;13.462;2023-11-22T04:15:49;100623.41;;;0.62
72236;BMP280;60146;52.498;13.462;2023-11-22T04:18:15;100613.31;;;0.61
72236;BMP280;60146;52.498;13.462;2023-11-22T04:20:40;100599.97;;;0.70
72236;BMP280;60146;52.498;13.462;2023-11-22T04:23:05;100619.81;;;0.69
72236;BMP280;60146;52.498;13.462;2023-11-22T04:25:31;100620.16;;;0.73
72236;BMP280;60146;52.498;13.462;2023-11-22T04:27:56;100590.28;;;0.66
72236;BMP280;60146;52.498;13.462;2023-11-22T04:30:22;100550.22;;;0.69
72236;BMP280;60146;52.498;13.462;2023-11-22T04:32:47;100546.19;;;0.73
72236;BMP280;60146;52.498;13.462;2023-11-22T04:35:13;100534.88;;;0.74
72236;BMP280;60146;52.498;13.462;2023-11-22T04:37:39;100518.63;;;0.74
72236;BMP280;60146;52.498;13.462;2023-11-22T04:40:05;100538.72;;;0.66
72236;BMP280;60146;52.498;13.462;2023-11-22T04:42:34;100546.31;;;0.61
72236;BMP280;60146;52.498;13.462;2023-11-22T04:45:00;100533.69;;;0.53
72236;BMP280;60146;52.498;13.462;2023-11-22T04:47:25;100519.41;;;0.57
72236;BMP280;60146;52.498;13.462;2023-11-22T04:49:51;100523.97;;;0.55
72236;BMP280;60146;52.498;13.462;2023-11-22T04:52:16;100542.44;;;0.52
72236;BMP280;60146;52.498;13.462;2023-11-22T04:54:41;100569.94;;;0.58
72236;BMP280;60146;52.498;13.462;2023-11-22T04:57:07;100596.28;;;0.60
72236;BMP280;60146;52.498;13.462;2023-11-22T04:59:32;100643.91;;;0.57
72236;BMP280;60146;52.498;13.462;2023-11-22T05:01:57;100639.56;;;0.51
72236;BMP280;60146;52.498;13.462;2023-11-22T05:04:23;100628.47;;;0.51
72236;BMP280;60146;52.498;13.462;2023-11-22T05:06:48;100675.97;;;0.61
72236;BMP280;60146;52.498;13.462;2023-11-22T05:09:13;100663.13;;;0.55
72236;BMP280;60146;52.498;13.462;2023-11-22T05:11:39;100675.66;;;0.45
72236;BMP280;60146;52.498;13.462;2023-11-22T05:14:06;100658.66;;;0.38
72236;BMP280;60146;52.498;13.462;2023-11-22T05:16:32;100651.75;;;0.38
72236;BMP280;60146;52.498;13.462;2023-11-22T05:18:58;100694.28;;;0.47
72236;BMP280;60146;52.498;13.462;2023-11-22T05:21:24;100712.50;;;0.52
72236;BMP280;60146;52.498;13.462;2023-11-22T05:23:49;100776.72;;;0.47
72236;BMP280;60146;52.498;13.462;2023-11-22T05:26:14;100759.31;;;0.43
72236;BMP280;60146;52.498;13.462;2023-11-22T05:28:40;100765.44;;;0.48
72236;BMP280;60146;52.498;13.462;2023-11-22T05:31:05;100790.44;;;0.41
72236;BMP280;60146;52.498;13.462;2023-11-22T05:33:30;100796.97;;;0.44
72236;BMP280;60146;52.498;13.462;2023-11-22T05:35:57;100804.91;;;0.42
72236;BMP280;60146;52.498;13.462;2023-11-22T05:38:22;100816.38;;;0.46
72236;BMP280;60146;52.498;13.462;2023-11-22T05:40:47;100874.47;;;0.42
72236;BMP280;60146;52.498;13.462;2023-11-22T05:43:13;100856.44;;;0.42
72236;BMP280;60146;52.498;13.462;2023-11-22T05:45:38;100891.50;;;0.43
72236;BMP280;60146;52.498;13.462;2023-11-22T05:48:04;100937.31;;;0.41
72236;BMP280;60146;52.498;13.462;2023-11-22T05:50:29;100943.84;;;0.37
72236;BMP280;60146;52.498;13.462;2023-11-22T05:52:54;100928.03;;;0.27
72236;BMP280;60146;52.498;13.462;2023-11-22T05:55:20;100900.09;;;0.31
72236;BMP280;60146;52.498;13.462;2023-11-22T05:57:46;100919.84;;;0.37
72236;BMP280;60146;52.498;13.462;2023-11-22T06:00:11;100917.13;;;0.25
72236;BMP280;60146;52.498;13.462;2023-11-22T06:02:39;100913.91;;;0.36
72236;BMP280;60146;52.498;13.462;2023-11-22T06:05:05;100931.22;;;0.29
72236;BMP280;60146;52.498;13.462;2023-11-22T06:07:31;100924.66;;;0.27
72236;BMP280;60146;52.498;13.462;2023-11-22T06:09:56;100928.22;;;0.26
72236;BMP280;60146;52.498;13.462;2023-11-22T06:12:22;100909.97;;;0.40
72236;BMP280;60146;52.498;13.462;2023-11-22T06:14:47;100929.19;;;0.31
72236;BMP280;60146;52.498;13.462;2023-11-22T06:17:13;100926.22;;;0.34
72236;BMP280;60146;52.498;13.462;2023-11-22T06:19:39;100916.31;;;0.31
72236;BMP280;60146;52.498;13.462;2023-11-22T06:22:04;100911.19;;;0.25
72236;BMP280;60146;52.498;13.462;2023-11-22T06:24:30;100921.84;;;0.35
72236;BMP280;60146;52.498;13.462;2023-11-22T06:26:56;100929.44;;;0.30
72236;BMP280;60146;52.498;13.462;2023-11-22T06:29:21;100924.69;;;0.21
72236;BMP280;60146;52.498;13.462;2023-11-22T06:31:46;100884.66;;;0.24
72236;BMP280;60146;52.498;13.462;2023-11-22T06:34:12;100896.34;;;0.21
72236;BMP280;60146;52.498;13.462;2023-11-22T06:36:37;100873.75;;;0.22
72236;BMP280;60146;52.498;13.462;2023-11-22T06:39:03;100882.69;;;0.20
72236;BMP280;60146;52.498;13.462;2023-11-22T06:41:30;100874.34;;;0.24
72236;BMP280;60146;52.498;13.462;2023-11-22T06:43:55;100906.56;;;0.46
72236;BMP280;60146;52.498;13.462;2023-11-22T06:46:21;100935.31;;;0.37
72236;BMP280;60146;52.498;13.462;2023-11-22T06:48:48;100925.22;;;0.35
72236;BMP280;60146;52.498;13.462;2023-11-22T06:51:14;100925.06;;;0.30
72236;BMP280;60146;52.498;13.462;2023-11-22T06:53:40;100929.97;;;0.32
72236;BMP280;60146;52.498;13.462;2023-11-22T06:56:06;100941.31;;;0.24
72236;BMP280;60146;52.498;13.462;2023-11-22T06:58:32;100964.66;;;0.42
72236;BMP280;60146;52.498;13.462;2023-11-22T07:00:57;100971.38;;;0.37
72236;BMP280;60146;52.498;13.462;2023-11-22T07:03:23;100960.25;;;0.55
72236;BMP280;60146;52.498;13.462;2023-11-22T07:05:48;100971.25;;;1.00
72236;BMP280;60146;52.498;13.462;2023-11-22T07:08:14;101037.75;;;1.48
72236;BMP280;60146;52.498;13.462;2023-11-22T07:10:42;101186.31;;;2.00
72236;BMP280;60146;52.498;13.462;2023-11-22T07:13:07;101311.56;;;2.47
72236;BMP280;60146;52.498;13.462;2023-11-22T07:15:32;101492.81;;;2.88
72236;BMP280;60146;52.498;13.462;2023-11-22T07:17:58;101630.50;;;3.35
72236;BMP280;60146;52.498;13.462;2023-11-22T07:20:24;101747.88;;;3.91
72236;BMP280;60146;52.498;13.462;2023-11-22T07:22:49;101883.78;;;4.39
72236;BMP280;60146;52.498;13.462;2023-11-22T07:25:20;102077.50;;;4.83
72236;BMP280;60146;52.498;13.462;2023-11-22T07:27:46;102087.34;;;4.56
72236;BMP280;60146;52.498;13.462;2023-11-22T07:30:13;102026.09;;;3.98
72236;BMP280;60146;52.498;13.462;2023-11-22T07:32:39;101931.09;;;3.39
72236;BMP280;60146;52.498;13.462;2023-11-22T07:35:05;101874.31;;;3.06
72236;BMP280;60146;52.498;13.462;2023-11-22T07:37:33;101771.44;;;2.56
72236;BMP280;60146;52.498;13.462;2023-11-22T07:39:59;101718.47;;;2.33
72236;BMP280;60146;52.498;13.462;2023-11-22T07:42:26;101669.50;;;2.25
72236;BMP280;60146;52.498;13.462;2023-11-22T07:44:51;101646.28;;;2.31
72236;BMP280;60146;52.498;13.462;2023-11-22T07:47:21;101681.34;;;2.47
72236;BMP280;60146;52.498;13.462;2023-11-22T07:49:48;101697.66;;;2.85
72236;BMP280;60146;52.498;13.462;2023-11-22T07:52:13;101701.78;;;3.37
72236;BMP280;60146;52.498;13.462;2023-11-22T07:54:39;101839.16;;;4.12
72236;BMP280;60146;52.498;13.462;2023-11-22T07:57:05;101965.34;;;4.99
72236;BMP280;60146;52.498;13.462;2023-11-22T07:59:32;102073.91;;;5.70
72236;BMP280;60146;52.498;13.462;2023-11-22T08:01:57;102188.69;;;6.10
72236;BMP280;60146;52.498;13.462;2023-11-22T08:04:23;102253.53;;;6.48
72236;BMP280;60146;52.498;13.462;2023-11-22T08:06:48;102330.78;;;7.15
72236;BMP280;60146;52.498;13.462;2023-11-22T08:09:14;102370.81;;;7.68
72236;BMP280;60146;52.498;13.462;2023-11-22T08:11:42;102419.88;;;8.48
72236;BMP280;60146;52.498;13.462;2023-11-22T08:14:07;102479.84;;;9.29
72236;BMP280;60146;52.498;13.462;2023-11-22T08:16:33;102515.63;;;9.80
72236;BMP280;60146;52.498;13.462;2023-11-22T08:19:03;102541.09;;;10.07
72236;BMP280;60146;52.498;13.462;2023-11-22T08:21:30;102562.97;;;9.90
72236;BMP280;60146;52.498;13.462;2023-11-22T08:23:56;102558.69;;;9.15
72236;BMP280;60146;52.498;13.462;2023-11-22T08:26:21;102546.94;;;8.77
72236;BMP280;60146;52.498;13.462;2023-11-22T08:28:46;102543.41;;;8.37
72236;BMP280;60146;52.498;13.462;2023-11-22T08:31:12;102562.25;;;9.60
72236;BMP280;60146;52.498;13.462;2023-11-22T08:33:38;102435.13;;;11.28
72236;BMP280;60146;52.498;13.462;2023-11-22T08:36:07;102583.25;;;11.48
72236;BMP280;60146;52.498;13.462;2023-11-22T08:38:34;102602.00;;;11.84
72236;BMP280;60146;52.498;13.462;2023-11-22T08:41:06;102634.44;;;12.26
72236;BMP280;60146;52.498;13.462;2023-11-22T08:43:32;102642.50;;;12.41
72236;BMP280;60146;52.498;13.462;2023-11-22T08:45:59;102639.06;;;13.29
72236;BMP280;60146;52.498;13.462;2023-11-22T08:48:24;102634.78;;;13.44
72236;BMP280;60146;52.498;13.462;2023-11-22T08:50:50;102648.00;;;13.54
72236;BMP280;60146;52.498;13.462;2023-11-22T08:53:18;102660.22;;;14.41
72236;BMP280;60146;52.498;13.462;2023-11-22T08:55:44;102668.38;;;15.19
72236;BMP280;60146;52.498;13.462;2023-11-22T08:58:10;102671.41;;;14.72
72236;BMP280;60146;52.498;13.462;2023-11-22T09:00:36;102676.53;;;14.93
72236;BMP280;60146;52.498;13.462;2023-11-22T09:03:01;102679.47;;;15.16
72236;BMP280;60146;52.498;13.462;2023-11-22T09:05:28;102686.06;;;15.09
72236;BMP280;60146;52.498;13.462;2023-11-22T09:07:53;102686.38;;;15.61
72236;BMP280;60146;52.498;13.462;2023-11-22T09:10:21;102688.19;;;16.09
72236;BMP280;60146;52.498;13.462;2023-11-22T09:12:47;102693.31;;;17.10
72236;BMP280;60146;52.498;13.462;2023-11-22T09:15:13;102691.72;;;17.09
72236;BMP280;60146;52.498;13.462;2023-11-22T09:17:44;102688.25;;;17.46
72236;BMP280;60146;52.498;13.462;2023-11-22T09:20:14;102674.50;;;17.39
72236;BMP280;60146;52.498;13.462;2023-11-22T09:22:50;102677.88;;;17.77
72236;BMP280;60146;52.498;13.462;2023-11-22T09:25:17;102670.59;;;17.60
72236;BMP280;60146;52.498;13.462;2023-11-22T09:27:45;102667.75;;;18.25
72236;BMP280;60146;52.498;13.462;2023-11-22T09:30:14;102663.56;;;18.60
72236;BMP280;60146;52.498;13.462;2023-11-22T09:32:47;102652.31;;;17.58
72236;BMP280;60146;52.498;13.462;2023-11-22T09:35:14;102642.44;;;17.03
72236;BMP280;60146;52.498;13.462;2023-11-22T09:37:40;102650.53;;;17.49
72236;BMP280;60146;52.498;13.462;2023-11-22T09:40:10;102648.88;;;18.49
72236;BMP280;60146;52.498;13.462;2023-11-22T09:42:36;102643.47;;;18.36
72236;BMP280;60146;52.498;13.462;2023-11-22T09:45:02;102640.97;;;18.94
72236;BMP280;60146;52.498;13.462;2023-11-22T09:47:32;102627.22;;;18.92
72236;BMP280;60146;52.498;13.462;2023-11-22T09:49:57;102620.28;;;19.79
72236;BMP280;60146;52.498;13.462;2023-11-22T09:52:27;102616.13;;;19.73
72236;BMP280;60146;52.498;13.462;2023-11-22T09:54:54;102621.81;;;18.06
72236;BMP280;60146;52.498;13.462;2023-11-22T09:57:22;102617.44;;;18.33
72236;BMP280;60146;52.498;13.462;2023-11-22T09:59:49;102625.81;;;18.94
72236;BMP280;60146;52.498;13.462;2023-11-22T10:02:17;102632.16;;;18.98
72236;BMP280;60146;52.498;13.462;2023-11-22T10:04:43;102642.47;;;19.31
72236;BMP280;60146;52.498;13.462;2023-11-22T10:07:09;102655.25;;;20.12
72236;BMP280;60146;52.498;13.462;2023-11-22T10:09:35;102664.28;;;20.72
72236;BMP280;60146;52.498;13.462;2023-11-22T10:12:03;102669.13;;;21.13
72236;BMP280;60146;52.498;13.462;2023-11-22T10:14:30;102672.16;;;19.82
72236;BMP280;60146;52.498;13.462;2023-11-22T10:17:00;102669.50;;;20.99
72236;BMP280;60146;52.498;13.462;2023-11-22T10:19:26;102652.59;;;20.82
72236;BMP280;60146;52.498;13.462;2023-11-22T10:22:07;102655.47;;;19.89
72236;BMP280;60146;52.498;13.462;2023-11-22T10:24:34;102657.66;;;20.48
72236;BMP280;60146;52.498;13.462;2023-11-22T10:27:01;102651.25;;;19.62
72236;BMP280;60146;52.498;13.462;2023-11-22T10:29:26;102665.28;;;20.15
72236;BMP280;60146;52.498;13.462;2023-11-22T10:31:52;102672.22;;;18.88
72236;BMP280;60146;52.498;13.462;2023-11-22T10:34:24;102673.34;;;18.64
72236;BMP280;60146;52.498;13.462;2023-11-22T10:36:49;102675.88;;;18.33
72236;BMP280;60146;52.498;13.462;2023-11-22T10:39:21;102667.91;;;17.92
72236;BMP280;60146;52.498;13.462;2023-11-22T10:41:47;102669.19;;;16.64
72236;BMP280;60146;52.498;13.462;2023-11-22T10:44:13;102671.91;;;16.49
72236;BMP280;60146;52.498;13.462;2023-11-22T10:46:40;102659.41;;;15.10
72236;BMP280;60146;52.498;13.462;2023-11-22T10:49:06;102664.28;;;13.77
72236;BMP280;60146;52.498;13.462;2023-11-22T10:51:33;102669.88;;;12.40
72236;BMP280;60146;52.498;13.462;2023-11-22T10:54:00;102674.63;;;10.80
72236;BMP280;60146;52.498;13.462;2023-11-22T10:56:36;102679.94;;;9.95
72236;BMP280;60146;52.498;13.462;2023-11-22T10:59:08;102675.06;;;9.41
72236;BMP280;60146;52.498;13.462;2023-11-22T11:01:35;102680.03;;;8.96
72236;BMP280;60146;52.498;13.462;2023-11-22T11:04:02;102682.91;;;8.95
72236;BMP280;60146;52.498;13.462;2023-11-22T11:06:33;102677.91;;;8.52
72236;BMP280;60146;52.498;13.462;2023-11-22T11:09:01;102676.56;;;8.19
72236;BMP280;60146;52.498;13.462;2023-11-22T11:11:31;102671.59;;;7.81
72236;BMP280;60146;52.498;13.462;2023-11-22T11:13:57;102677.34;;;7.66
72236;BMP280;60146;52.498;13.462;2023-11-22T11:16:23;102667.06;;;7.64
72236;BMP280;60146;52.498;13.462;2023-11-22T11:18:49;102656.38;;;7.35
72236;BMP280;60146;52.498;13.462;2023-11-22T11:21:15;102650.94;;;7.43
72236;BMP280;60146;52.498;13.462;2023-11-22T11:23:41;102655.56;;;7.47
72236;BMP280;60146;52.498;13.462;2023-11-22T11:26:19;102647.78;;;7.28
72236;BMP280;60146;52.498;13.462;2023-11-22T11:28:48;102648.41;;;7.18
72236;BMP280;60146;52.498;13.462;2023-11-22T11:31:14;102642.38;;;7.23
72236;BMP280;60146;52.498;13.462;2023-11-22T11:33:53;102639.38;;;7.26
72236;BMP280;60146;52.498;13.462;2023-11-22T11:36:30;102631.97;;;7.23
72236;BMP280;60146;52.498;13.462;2023-11-22T11:38:59;102617.44;;;6.91
72236;BMP280;60146;52.498;13.462;2023-11-22T11:43:53;102608.31;;;6.25
72236;BMP280;60146;52.498;13.462;2023-11-22T11:46:20;102610.28;;;6.10
72236;BMP280;60146;52.498;13.462;2023-11-22T11:48:48;102609.72;;;6.34
72236;BMP280;60146;52.498;13.462;2023-11-22T11:51:14;102598.09;;;5.92
72236;BMP280;60146;52.498;13.462;2023-11-22T11:53:41;102589.03;;;5.75
72236;BMP280;60146;52.498;13.462;2023-11-22T11:56:07;102572.47;;;5.89
72236;BMP280;60146;52.498;13.462;2023-11-22T11:58:32;102569.81;;;5.95
72236;BMP280;60146;52.498;13.462;2023-11-22T12:00:58;102567.69;;;6.05
72236;BMP280;60146;52.498;13.462;2023-11-22T12:03:23;102552.22;;;5.72
72236;BMP280;60146;52.498;13.462;2023-11-22T12:05:49;102557.03;;;5.68
72236;BMP280;60146;52.498;13.462;2023-11-22T12:08:14;102564.22;;;5.73
72236;BMP280;60146;52.498;13.462;2023-11-22T12:10:41;102559.41;;;5.63
72236;BMP280;60146;52.498;13.462;2023-11-22T12:13:07;102537.03;;;5.88
72236;BMP280;60146;52.498;13.462;2023-11-22T12:15:33;102519.84;;;6.06
72236;BMP280;60146;52.498;13.462;2023-11-22T12:17:59;102509.44;;;6.06
72236;BMP280;60146;52.498;13.462;2023-11-22T12:20:26;102527.81;;;5.98
72236;BMP280;60146;52.498;13.462;2023-11-22T12:22:57;102506.41;;;6.02
72236;BMP280;60146;52.498;13.462;2023-11-22T12:25:22;102496.63;;;5.79
72236;BMP280;60146;52.498;13.462;2023-11-22T12:27:57;102482.19;;;5.96
72236;BMP280;60146;52.498;13.462;2023-11-22T12:30:35;102473.25;;;7.03
72236;BMP280;60146;52.498;13.462;2023-11-22T12:33:05;102478.63;;;8.21
72236;BMP280;60146;52.498;13.462;2023-11-22T12:35:31;102500.56;;;8.73
72236;BMP280;60146;52.498;13.462;2023-11-22T12:38:01;102483.88;;;9.54
72236;BMP280;60146;52.498;13.462;2023-11-22T12:40:29;102493.44;;;10.43
72236;BMP280;60146;52.498;13.462;2023-11-22T12:43:02;102495.72;;;10.67
72236;BMP280;60146;52.498;13.462;2023-11-22T12:45:29;102507.47;;;10.92
72236;BMP280;60146;52.498;13.462;2023-11-22T12:47:56;102535.81;;;11.06
72236;BMP280;60146;52.498;13.462;2023-11-22T12:50:34;102543.41;;;11.51
72236;BMP280;60146;52.498;13.462;2023-11-22T12:53:10;102528.88;;;11.44
72236;BMP280;60146;52.498;13.462;2023-11-22T12:55:42;102533.34;;;11.00
72236;BMP280;60146;52.498;13.462;2023-11-22T12:58:09;102552.16;;;10.09
72236;BMP280;60146;52.498;13.462;2023-11-22T13:00:34;102570.50;;;10.31
72236;BMP280;60146;52.498;13.462;2023-11-22T13:03:01;102580.81;;;9.59
72236;BMP280;60146;52.498;13.462;2023-11-22T13:05:26;102583.28;;;8.96
72236;BMP280;60146;52.498;13.462;2023-11-22T13:07:51;102587.81;;;8.72
72236;BMP280;60146;52.498;13.462;2023-11-22T13:10:18;102576.22;;;8.50
72236;BMP280;60146;52.498;13.462;2023-11-22T13:12:44;102566.03;;;8.43
72236;BMP280;60146;52.498;13.462;2023-11-22T13:15:11;102572.34;;;7.94
72236;BMP280;60146;52.498;13.462;2023-11-22T13:17:37;102557.63;;;7.75
72236;BMP280;60146;52.498;13.462;2023-11-22T13:20:06;102550.63;;;7.39
72236;BMP280;60146;52.498;13.462;2023-11-22T13:22:38;102554.06;;;7.33
72236;BMP280;60146;52.498;13.462;2023-11-22T13:25:04;102550.75;;;7.20
72236;BMP280;60146;52.498;13.462;2023-11-22T13:27:31;102551.53;;;6.78
72236;BMP280;60146;52.498;13.462;2023-11-22T13:29:56;102548.34;;;6.82
72236;BMP280;60146;52.498;13.462;2023-11-22T13:32:23;102530.72;;;6.65
72236;BMP280;60146;52.498;13.462;2023-11-22T13:34:50;102520.16;;;6.54
72236;BMP280;60146;52.498;13.462;2023-11-22T13:37:22;102517.22;;;6.18
72236;BMP280;60146;52.498;13.462;2023-11-22T13:39:48;102517.00;;;5.95
72236;BMP280;60146;52.498;13.462;2023-11-22T13:42:13;102511.22;;;5.93
72236;BMP280;60146;52.498;13.462;2023-11-22T13:44:40;102501.84;;;5.79
72236;BMP280;60146;52.498;13.462;2023-11-22T13:47:06;102498.00;;;5.69
72236;BMP280;60146;52.498;13.462;2023-11-22T13:49:33;102478.56;;;5.39
72236;BMP280;60146;52.498;13.462;2023-11-22T13:51:59;102470.28;;;5.04